createdAt,value
2023-03-16T00:00:01.492Z,51.97
2023-03-16T00:00:33.270Z,52.57
2023-03-16T00:01:06.548Z,52.07
2023-03-16T00:01:38.286Z,52.85
2023-03-16T00:02:12.243Z,52.40
2023-03-16T00:02:44.566Z,52.33
2023-03-16T00:03:19.645Z,52.94
2023-03-16T00:03:51.418Z,53.09
2023-03-16T00:04:23.162Z,52.66
2023-03-16T00:04:55.166Z,53.06
2023-03-16T00:05:27.003Z,52.85
2023-03-16T00:05:59.079Z,53.38
2023-03-16T00:06:30.890Z,53.04
2023-03-16T00:07:02.689Z,52.82
2023-03-16T00:07:34.790Z,52.91
2023-03-16T00:08:06.594Z,53.09
2023-03-16T00:08:39.280Z,52.86
2023-03-16T00:09:11.093Z,52.96
2023-03-16T00:09:43.160Z,53.07
2023-03-16T00:10:15.197Z,53.05
2023-03-16T00:10:47.953Z,53.03
2023-03-16T00:11:19.712Z,53.64
2023-03-16T00:11:51.440Z,53.59
2023-03-16T00:12:23.282Z,52.82
2023-03-16T00:12:55.988Z,53.61
2023-03-16T00:13:27.756Z,53.77
2023-03-16T00:13:59.492Z,53.59
2023-03-16T00:14:35.694Z,53.01
2023-03-16T00:15:08.152Z,53.58
2023-03-16T00:15:39.911Z,53.46
2023-03-16T00:16:17.266Z,53.41
2023-03-16T00:16:49.210Z,53.08
2023-03-16T00:17:22.043Z,53.35
2023-03-16T00:17:54.984Z,52.97
2023-03-16T00:18:28.855Z,53.44
2023-03-16T00:19:00.621Z,53.31
2023-03-16T00:19:35.210Z,53.02
2023-03-16T00:20:07.830Z,53.09
2023-03-16T00:20:39.548Z,53.29
2023-03-16T00:21:14.958Z,52.92
2023-03-16T00:21:46.740Z,53.04
2023-03-16T00:22:18.451Z,53.28
2023-03-16T00:22:50.306Z,52.79
2023-03-16T00:23:29.052Z,52.76
2023-03-16T00:24:01.119Z,53.25
2023-03-16T00:24:32.951Z,53.71
2023-03-16T00:25:05.180Z,53.51
2023-03-16T00:25:36.895Z,53.40
2023-03-16T00:26:10.220Z,53.07
2023-03-16T00:26:42.324Z,53.50
2023-03-16T00:27:15.406Z,52.88
2023-03-16T00:27:47.512Z,53.52
2023-03-16T00:28:19.481Z,52.86
2023-03-16T00:28:54.364Z,53.61
2023-03-16T00:29:26.207Z,53.85
2023-03-16T00:29:58.032Z,53.61
2023-03-16T00:30:32.825Z,53.09
2023-03-16T00:31:07.081Z,53.28
2023-03-16T00:31:45.807Z,53.66
2023-03-16T00:32:19.925Z,53.33
2023-03-16T00:32:54.102Z,53.97
2023-03-16T00:33:27.072Z,53.60
2023-03-16T00:33:58.892Z,54.00
2023-03-16T00:34:34.717Z,54.10
2023-03-16T00:35:09.424Z,53.83
2023-03-16T00:35:50.426Z,53.50
2023-03-16T00:36:22.853Z,53.64
2023-03-16T00:36:55.449Z,54.21
2023-03-16T00:37:28.803Z,53.50
2023-03-16T00:38:00.617Z,53.65
2023-03-16T00:38:35.102Z,54.27
2023-03-16T00:39:07.163Z,54.24
2023-03-16T00:39:38.907Z,53.68
2023-03-16T00:40:12.621Z,54.16
2023-03-16T00:40:44.700Z,54.22
2023-03-16T00:41:16.698Z,54.45
2023-03-16T00:41:48.454Z,54.40
2023-03-16T00:42:20.591Z,54.18
2023-03-16T00:42:52.305Z,54.83
2023-03-16T00:43:27.296Z,54.04
2023-03-16T00:43:59.085Z,54.16
2023-03-16T00:44:31.781Z,53.93
2023-03-16T00:45:05.890Z,54.17
2023-03-16T00:45:37.665Z,54.83
2023-03-16T00:46:11.551Z,54.99
2023-03-16T00:46:43.350Z,54.58
2023-03-16T00:47:15.575Z,54.97
2023-03-16T00:47:47.332Z,54.74
2023-03-16T00:48:21.342Z,54.21
2023-03-16T00:48:53.103Z,54.77
2023-03-16T00:49:24.922Z,55.22
2023-03-16T00:49:57.656Z,55.01
2023-03-16T00:50:29.911Z,54.84
2023-03-16T00:51:04.421Z,54.26
2023-03-16T00:51:36.211Z,54.61
2023-03-16T00:52:08.136Z,54.88
2023-03-16T00:52:39.937Z,55.01
2023-03-16T00:53:11.961Z,54.44
2023-03-16T00:53:46.076Z,55.07
2023-03-16T00:54:18.220Z,55.39
2023-03-16T00:54:50.276Z,55.63
2023-03-16T00:55:22.084Z,54.61
2023-03-16T00:55:53.821Z,55.51
2023-03-16T00:56:25.572Z,55.71
2023-03-16T00:56:57.266Z,55.42
2023-03-16T00:57:30.275Z,55.35
2023-03-16T00:58:05.090Z,54.95
2023-03-16T00:58:43.158Z,55.59
2023-03-16T00:59:15.632Z,54.64
2023-03-16T00:59:48.145Z,55.40
2023-03-16T01:00:21.294Z,55.05
2023-03-16T01:00:54.857Z,55.33
2023-03-16T01:01:27.577Z,55.87
2023-03-16T01:01:59.371Z,55.25
2023-03-16T01:02:31.096Z,55.36
2023-03-16T01:03:02.859Z,55.41
2023-03-16T01:03:35.836Z,55.60
2023-03-16T01:04:07.774Z,55.30
2023-03-16T01:04:41.348Z,55.79
2023-03-16T01:05:14.227Z,55.91
2023-03-16T01:05:46.038Z,55.68
2023-03-16T01:06:20.724Z,56.13
2023-03-16T01:06:52.515Z,55.46
2023-03-16T01:07:24.278Z,55.84
2023-03-16T01:07:56.034Z,55.84
2023-03-16T01:08:30.436Z,55.87
2023-03-16T01:09:02.709Z,56.06
2023-03-16T01:09:37.726Z,56.39
2023-03-16T01:10:10.279Z,56.14
2023-03-16T01:10:41.993Z,56.86
2023-03-16T01:11:17.149Z,56.58
2023-03-16T01:11:53.492Z,56.36
2023-03-16T01:12:25.255Z,56.68
2023-03-16T01:12:56.991Z,56.05
2023-03-16T01:13:28.707Z,56.28
2023-03-16T01:14:00.962Z,56.06
2023-03-16T01:14:34.943Z,56.20
2023-03-16T01:15:07.273Z,56.12
2023-03-16T01:15:39.471Z,56.22
2023-03-16T01:16:11.506Z,57.11
2023-03-16T01:16:45.983Z,56.89
2023-03-16T01:17:18.419Z,56.19
2023-03-16T01:17:50.159Z,56.66
2023-03-16T01:18:22.458Z,56.78
2023-03-16T01:18:54.290Z,56.23
2023-03-16T01:19:26.083Z,56.73
2023-03-16T01:19:57.730Z,56.28
2023-03-16T01:20:29.793Z,56.12
2023-03-16T01:21:06.890Z,55.88
2023-03-16T01:21:40.383Z,57.08
2023-03-16T01:22:12.327Z,56.54
2023-03-16T01:22:44.033Z,56.77
2023-03-16T01:23:15.827Z,56.52
2023-03-16T01:23:48.233Z,56.80
2023-03-16T01:24:20.175Z,56.93
2023-03-16T01:24:51.889Z,56.66
2023-03-16T01:25:24.225Z,56.91
2023-03-16T01:25:57.061Z,57.01
2023-03-16T01:26:28.799Z,56.97
2023-03-16T01:27:00.797Z,56.48
2023-03-16T01:27:33.001Z,56.95
2023-03-16T01:28:04.710Z,56.56
2023-03-16T01:28:37.002Z,57.14
2023-03-16T01:29:08.883Z,57.50
2023-03-16T01:29:43.770Z,57.38
2023-03-16T01:30:15.677Z,57.14
2023-03-16T01:30:47.615Z,56.92
2023-03-16T01:31:19.412Z,56.58
2023-03-16T01:31:51.184Z,56.49
2023-03-16T01:32:23.112Z,56.65
2023-03-16T01:32:54.898Z,56.60
2023-03-16T01:33:28.637Z,57.57
2023-03-16T01:34:01.073Z,57.88
2023-03-16T01:34:34.408Z,57.55
2023-03-16T01:35:07.815Z,57.41
2023-03-16T01:35:39.619Z,56.69
2023-03-16T01:36:17.268Z,57.82
2023-03-16T01:36:51.094Z,56.85
2023-03-16T01:37:23.232Z,57.01
2023-03-16T01:37:54.950Z,57.04
2023-03-16T01:38:27.372Z,57.67
2023-03-16T01:39:00.271Z,56.71
2023-03-16T01:39:32.006Z,57.72
2023-03-16T01:40:06.609Z,57.82
2023-03-16T01:40:38.334Z,57.32
2023-03-16T01:41:10.705Z,57.97
2023-03-16T01:41:44.676Z,57.91
2023-03-16T01:42:16.434Z,56.94
2023-03-16T01:42:59.069Z,57.31
2023-03-16T01:43:33.406Z,57.01
2023-03-16T01:44:05.994Z,57.95
2023-03-16T01:45:02.242Z,57.89
2023-03-16T01:46:07.560Z,57.81
2023-03-16T01:46:39.469Z,58.33
2023-03-16T01:47:12.258Z,57.13
2023-03-16T01:47:43.951Z,57.37
2023-03-16T01:48:15.854Z,57.52
2023-03-16T01:48:50.410Z,57.65
2023-03-16T01:49:36.492Z,57.41
2023-03-16T01:50:08.667Z,57.58
2023-03-16T01:50:42.286Z,57.16
2023-03-16T01:51:35.806Z,57.58
2023-03-16T01:52:21.596Z,57.10
2023-03-16T01:52:53.336Z,58.18
2023-03-16T01:53:26.766Z,57.46
2023-03-16T01:54:06.714Z,58.25
2023-03-16T01:54:51.952Z,57.55
2023-03-16T01:55:23.727Z,57.72
2023-03-16T01:55:55.539Z,57.79
2023-03-16T01:56:35.653Z,58.38
2023-03-16T01:57:15.118Z,57.65
2023-03-16T01:57:47.883Z,57.87
2023-03-16T01:58:19.796Z,58.10
2023-03-16T01:58:58.762Z,58.15
2023-03-16T01:59:44.811Z,57.59
2023-03-16T02:00:23.423Z,57.20
2023-03-16T02:00:55.231Z,57.41
2023-03-16T02:01:27.841Z,57.84
2023-03-16T02:02:02.468Z,58.47
2023-03-16T02:02:35.127Z,57.78
2023-03-16T02:03:14.007Z,57.53
2023-03-16T02:03:46.235Z,57.63
2023-03-16T02:04:42.358Z,57.45
2023-03-16T02:05:23.187Z,58.12
2023-03-16T02:06:23.119Z,57.15
2023-03-16T02:06:56.663Z,58.16
2023-03-16T02:07:32.030Z,57.77
2023-03-16T02:08:05.585Z,57.72
2023-03-16T02:08:39.917Z,58.21
2023-03-16T02:09:12.260Z,58.91
2023-03-16T02:09:48.589Z,58.04
2023-03-16T02:10:20.942Z,57.98
2023-03-16T02:10:55.077Z,58.71
2023-03-16T02:11:26.985Z,58.34
2023-03-16T02:11:59.672Z,58.52
2023-03-16T02:12:31.583Z,58.62
2023-03-16T02:13:03.978Z,58.11
2023-03-16T02:13:37.048Z,59.19
2023-03-16T02:14:11.916Z,58.66
2023-03-16T02:14:45.604Z,58.41
2023-03-16T02:15:17.387Z,58.91
2023-03-16T02:15:49.555Z,58.56
2023-03-16T02:16:22.832Z,59.24
2023-03-16T02:16:55.816Z,58.75
2023-03-16T02:17:32.078Z,59.34
2023-03-16T02:18:05.803Z,58.78
2023-03-16T02:18:37.538Z,59.81
2023-03-16T02:19:16.400Z,59.87
2023-03-16T02:20:10.247Z,59.58
2023-03-16T02:21:01.746Z,59.67
2023-03-16T02:22:08.852Z,58.87
2023-03-16T02:22:49.288Z,58.50
2023-03-16T02:23:24.617Z,59.34
2023-03-16T02:23:56.494Z,58.75
2023-03-16T02:24:28.410Z,58.75
2023-03-16T02:25:00.168Z,59.77
2023-03-16T02:25:44.233Z,59.10
2023-03-16T02:26:38.976Z,60.10
2023-03-16T02:27:17.653Z,59.81
2023-03-16T02:28:02.450Z,60.04
2023-03-16T02:29:04.811Z,59.67
2023-03-16T02:29:58.428Z,59.85
2023-03-16T02:30:31.039Z,60.35
2023-03-16T02:31:04.772Z,59.65
2023-03-16T02:31:37.272Z,59.60
2023-03-16T02:32:10.370Z,59.51
2023-03-16T02:32:44.283Z,60.50
2023-03-16T02:33:18.741Z,59.85
2023-03-16T02:33:54.233Z,60.48
2023-03-16T02:34:28.066Z,60.31
2023-03-16T02:35:02.291Z,60.25
2023-03-16T02:35:34.368Z,59.86
2023-03-16T02:36:06.643Z,59.35
2023-03-16T02:36:41.739Z,60.19
2023-03-16T02:37:13.969Z,60.27
2023-03-16T02:37:45.732Z,59.91
2023-03-16T02:38:17.472Z,60.53
2023-03-16T02:38:49.307Z,60.43
2023-03-16T02:39:21.058Z,60.47
2023-03-16T02:39:53.736Z,60.46
2023-03-16T02:40:27.934Z,60.28
2023-03-16T02:41:17.883Z,60.24
2023-03-16T02:41:50.060Z,60.01
2023-03-16T02:42:26.270Z,60.86
2023-03-16T02:43:27.147Z,61.10
2023-03-16T02:44:10.913Z,60.11
2023-03-16T02:44:48.570Z,60.23
2023-03-16T02:45:22.095Z,59.84
2023-03-16T02:45:57.226Z,60.73
2023-03-16T02:46:29.527Z,60.48
2023-03-16T02:47:07.802Z,60.89
2023-03-16T02:47:43.329Z,61.24
2023-03-16T02:48:26.508Z,61.16
2023-03-16T02:49:27.501Z,61.18
2023-03-16T02:49:59.381Z,61.01
2023-03-16T02:50:31.458Z,60.74
2023-03-16T02:51:03.341Z,61.08
2023-03-16T02:51:35.073Z,60.97
2023-03-16T02:52:07.157Z,61.59
2023-03-16T02:52:39.796Z,61.03
2023-03-16T02:53:11.514Z,61.86
2023-03-16T02:53:43.228Z,61.56
2023-03-16T02:54:15.080Z,62.28
2023-03-16T02:54:46.879Z,61.52
2023-03-16T02:55:18.679Z,61.70
2023-03-16T02:55:51.018Z,62.18
2023-03-16T02:56:22.886Z,61.15
2023-03-16T02:56:54.639Z,61.47
2023-03-16T02:57:26.384Z,62.13
2023-03-16T02:57:58.056Z,61.48
2023-03-16T02:58:30.388Z,61.44
2023-03-16T02:59:02.136Z,61.56
2023-03-16T02:59:33.897Z,62.13
2023-03-16T03:00:12.291Z,61.66
2023-03-16T03:00:45.440Z,61.76
2023-03-16T03:01:17.203Z,62.04
2023-03-16T03:01:48.953Z,61.16
2023-03-16T03:02:20.700Z,61.32
2023-03-16T03:02:52.668Z,62.53
2023-03-16T03:03:24.758Z,62.75
2023-03-16T03:03:56.437Z,62.80
2023-03-16T03:04:28.239Z,62.41
2023-03-16T03:05:00.486Z,61.80
2023-03-16T03:05:32.265Z,61.53
2023-03-16T03:06:04.095Z,61.80
2023-03-16T03:06:35.985Z,61.61
2023-03-16T03:07:07.759Z,61.36
2023-03-16T03:07:39.539Z,61.46
2023-03-16T03:08:12.164Z,61.53
2023-03-16T03:08:43.998Z,62.03
2023-03-16T03:09:15.744Z,61.25
2023-03-16T03:09:47.565Z,62.13
2023-03-16T03:10:19.970Z,61.54
2023-03-16T03:10:51.690Z,61.95
2023-03-16T03:11:23.478Z,62.60
2023-03-16T03:11:55.166Z,62.52
2023-03-16T03:12:26.921Z,61.68
2023-03-16T03:12:58.797Z,61.64
2023-03-16T03:13:31.726Z,61.79
2023-03-16T03:14:04.076Z,62.82
2023-03-16T03:14:39.193Z,62.25
2023-03-16T03:15:11.115Z,62.22
2023-03-16T03:15:42.938Z,62.29
2023-03-16T03:16:15.039Z,63.20
2023-03-16T03:16:47.125Z,62.41
2023-03-16T03:17:19.025Z,63.26
2023-03-16T03:17:51.144Z,62.44
2023-03-16T03:18:25.228Z,63.40
2023-03-16T03:18:57.783Z,63.62
2023-03-16T03:19:29.541Z,62.72
2023-03-16T03:20:13.672Z,63.28
2023-03-16T03:20:45.424Z,62.64
2023-03-16T03:21:17.102Z,62.62
2023-03-16T03:21:48.833Z,62.69
2023-03-16T03:22:20.525Z,62.47
2023-03-16T03:22:55.183Z,62.22
2023-03-16T03:23:26.888Z,62.51
2023-03-16T03:23:58.617Z,62.50
2023-03-16T03:24:32.576Z,62.83
2023-03-16T03:25:04.517Z,62.96
2023-03-16T03:25:36.260Z,62.81
2023-03-16T03:26:08.300Z,63.21
2023-03-16T03:26:40.123Z,63.26
2023-03-16T03:27:11.938Z,62.57
2023-03-16T03:27:44.800Z,62.94
2023-03-16T03:28:16.607Z,63.65
2023-03-16T03:28:48.406Z,63.41
2023-03-16T03:29:20.239Z,64.36
2023-03-16T03:29:52.437Z,64.06
2023-03-16T03:30:25.290Z,64.15
2023-03-16T03:30:57.380Z,64.10
2023-03-16T03:31:29.135Z,64.08
2023-03-16T03:32:05.117Z,64.44
2023-03-16T03:32:36.925Z,64.17
2023-03-16T03:33:08.751Z,64.30
2023-03-16T03:33:40.668Z,64.25
2023-03-16T03:34:12.385Z,64.81
2023-03-16T03:34:44.123Z,65.32
2023-03-16T03:35:16.696Z,64.95
2023-03-16T03:35:54.940Z,65.18
2023-03-16T03:36:26.937Z,65.27
2023-03-16T03:36:59.408Z,64.92
2023-03-16T03:37:31.618Z,64.08
2023-03-16T03:38:03.414Z,64.30
2023-03-16T03:38:35.460Z,64.60
2023-03-16T03:39:07.827Z,65.39
2023-03-16T03:39:40.524Z,64.45
2023-03-16T03:40:14.808Z,64.85
2023-03-16T03:40:50.273Z,65.16
2023-03-16T03:41:22.593Z,65.37
2023-03-16T03:41:54.702Z,65.52
2023-03-16T03:42:26.505Z,65.37
2023-03-16T03:42:58.251Z,65.70
2023-03-16T03:43:31.050Z,65.37
2023-03-16T03:44:04.955Z,66.13
2023-03-16T03:44:36.715Z,66.00
2023-03-16T03:45:12.683Z,65.26
2023-03-16T03:45:44.893Z,65.48
2023-03-16T03:46:16.800Z,65.46
2023-03-16T03:46:49.440Z,66.13
2023-03-16T03:47:21.325Z,65.67
2023-03-16T03:47:55.169Z,66.52
2023-03-16T03:48:27.390Z,66.72
2023-03-16T03:49:03.823Z,66.08
2023-03-16T03:49:35.562Z,66.17
2023-03-16T03:50:08.964Z,66.70
2023-03-16T03:50:40.950Z,67.22
2023-03-16T03:51:12.739Z,66.87
2023-03-16T03:51:44.887Z,66.71
2023-03-16T03:52:16.662Z,66.50
2023-03-16T03:52:48.703Z,66.63
2023-03-16T03:53:20.960Z,66.61
2023-03-16T03:53:52.737Z,67.38
2023-03-16T03:54:25.039Z,67.45
2023-03-16T03:54:56.776Z,66.82
2023-03-16T03:55:28.448Z,67.44
2023-03-16T03:56:00.219Z,68.16
2023-03-16T03:56:32.007Z,68.21
2023-03-16T03:57:05.173Z,67.58
2023-03-16T03:57:37.079Z,68.44
2023-03-16T03:58:08.864Z,67.88
2023-03-16T03:58:41.044Z,67.59
2023-03-16T03:59:12.797Z,68.06
2023-03-16T03:59:44.558Z,67.78
2023-03-16T04:00:20.515Z,67.26
2023-03-16T04:00:52.480Z,68.49
2023-03-16T04:01:24.698Z,68.62
2023-03-16T04:01:56.700Z,68.32
2023-03-16T04:02:28.715Z,68.81
2023-03-16T04:03:00.684Z,68.62
2023-03-16T04:03:32.539Z,68.56
2023-03-16T04:04:04.260Z,68.13
2023-03-16T04:04:36.438Z,68.18
2023-03-16T04:05:08.714Z,68.69
2023-03-16T04:05:40.459Z,68.19
2023-03-16T04:06:12.329Z,69.08
2023-03-16T04:06:44.129Z,68.15
2023-03-16T04:07:16.345Z,68.70
2023-03-16T04:07:49.530Z,68.75
2023-03-16T04:08:21.267Z,69.42
2023-03-16T04:08:54.480Z,69.39
2023-03-16T04:09:26.307Z,69.41
2023-03-16T04:09:58.197Z,69.04
2023-03-16T04:10:31.291Z,69.71
2023-03-16T04:11:03.267Z,68.73
2023-03-16T04:11:35.007Z,68.73
2023-03-16T04:12:07.011Z,69.56
2023-03-16T04:12:38.811Z,69.79
2023-03-16T04:13:10.725Z,69.25
2023-03-16T04:13:42.485Z,69.07
2023-03-16T04:14:14.202Z,68.96
2023-03-16T04:14:45.952Z,69.34
2023-03-16T04:15:17.880Z,69.94
2023-03-16T04:15:50.005Z,70.25
2023-03-16T04:16:22.282Z,69.61
2023-03-16T04:16:54.887Z,69.90
2023-03-16T04:17:26.769Z,70.25
2023-03-16T04:17:59.347Z,69.72
2023-03-16T04:18:38.817Z,70.19
2023-03-16T04:19:11.625Z,70.75
2023-03-16T04:19:43.628Z,70.25
2023-03-16T04:20:19.334Z,70.98
2023-03-16T04:20:53.327Z,70.01
2023-03-16T04:21:25.161Z,69.92
2023-03-16T04:21:56.899Z,70.37
2023-03-16T04:22:30.420Z,70.38
2023-03-16T04:23:02.157Z,70.88
2023-03-16T04:23:34.863Z,71.10
2023-03-16T04:24:06.746Z,71.09
2023-03-16T04:24:38.576Z,70.69
2023-03-16T04:25:11.944Z,70.94
2023-03-16T04:25:45.406Z,70.54
2023-03-16T04:26:17.944Z,71.34
2023-03-16T04:26:49.753Z,71.52
2023-03-16T04:27:21.493Z,70.72
2023-03-16T04:27:54.073Z,71.19
2023-03-16T04:28:26.902Z,71.99
2023-03-16T04:28:59.027Z,72.09
2023-03-16T04:29:32.083Z,71.66
2023-03-16T04:30:12.055Z,71.42
2023-03-16T04:30:43.886Z,71.10
2023-03-16T04:31:15.613Z,71.45
2023-03-16T04:31:47.497Z,70.97
2023-03-16T04:32:19.302Z,72.09
2023-03-16T04:32:52.552Z,70.91
2023-03-16T04:33:24.398Z,71.80
2023-03-16T04:33:56.175Z,71.96
2023-03-16T04:34:28.026Z,71.04
2023-03-16T04:34:59.987Z,71.06
2023-03-16T04:35:32.027Z,71.77
2023-03-16T04:36:05.225Z,71.48
2023-03-16T04:36:37.067Z,71.76
2023-03-16T04:37:08.806Z,72.09
2023-03-16T04:37:40.553Z,71.20
2023-03-16T04:38:12.805Z,72.18
2023-03-16T04:38:44.559Z,72.12
2023-03-16T04:39:16.306Z,71.36
2023-03-16T04:39:48.064Z,71.31
2023-03-16T04:40:19.802Z,71.26
2023-03-16T04:40:51.809Z,71.73
2023-03-16T04:41:24.286Z,71.76
2023-03-16T04:41:56.005Z,72.22
2023-03-16T04:42:27.724Z,72.05
2023-03-16T04:42:59.498Z,72.02
2023-03-16T04:43:34.532Z,72.15
2023-03-16T04:44:06.277Z,72.58
2023-03-16T04:44:44.338Z,71.62
2023-03-16T04:45:17.798Z,71.80
2023-03-16T04:45:50.717Z,72.28
2023-03-16T04:46:22.581Z,72.62
2023-03-16T04:46:54.331Z,72.40
2023-03-16T04:47:26.110Z,72.51
2023-03-16T04:47:57.924Z,72.77
2023-03-16T04:48:32.329Z,73.16
2023-03-16T04:49:04.195Z,72.37
2023-03-16T04:49:36.054Z,72.49
2023-03-16T04:50:09.160Z,72.69
2023-03-16T04:50:41.055Z,72.86
2023-03-16T04:51:12.868Z,72.58
2023-03-16T04:51:44.676Z,72.67
2023-03-16T04:52:16.645Z,72.70
2023-03-16T04:52:48.670Z,72.16
2023-03-16T04:53:20.448Z,73.02
2023-03-16T04:53:52.195Z,72.22
2023-03-16T04:54:23.960Z,72.84
2023-03-16T04:54:55.744Z,72.59
2023-03-16T04:55:27.906Z,72.45
2023-03-16T04:56:00.502Z,72.20
2023-03-16T04:56:32.300Z,72.39
2023-03-16T04:57:05.880Z,73.22
2023-03-16T04:57:37.730Z,73.03
2023-03-16T04:58:09.497Z,72.70
2023-03-16T04:58:41.689Z,73.00
2023-03-16T04:59:13.422Z,72.88
2023-03-16T04:59:45.583Z,73.17
2023-03-16T05:00:20.603Z,72.99
2023-03-16T05:00:53.751Z,73.33
2023-03-16T05:01:25.638Z,73.19
2023-03-16T05:01:57.499Z,74.05
2023-03-16T05:02:29.278Z,73.90
2023-03-16T05:03:02.794Z,73.67
2023-03-16T05:03:34.973Z,73.91
2023-03-16T05:04:06.785Z,73.57
2023-03-16T05:04:38.582Z,73.74
2023-03-16T05:05:10.553Z,74.25
2023-03-16T05:05:42.624Z,73.98
2023-03-16T05:06:14.520Z,73.73
2023-03-16T05:06:46.335Z,74.15
2023-03-16T05:07:18.723Z,73.64
2023-03-16T05:07:50.454Z,73.90
2023-03-16T05:08:22.545Z,73.94
2023-03-16T05:08:54.539Z,74.46
2023-03-16T05:09:26.402Z,74.30
2023-03-16T05:09:58.330Z,73.90
2023-03-16T05:10:30.282Z,74.87
2023-03-16T05:11:02.220Z,74.29
2023-03-16T05:11:33.992Z,74.40
2023-03-16T05:12:05.886Z,73.77
2023-03-16T05:12:37.825Z,74.33
2023-03-16T05:13:09.550Z,74.40
2023-03-16T05:13:41.283Z,74.24
2023-03-16T05:14:13.171Z,73.92
2023-03-16T05:14:46.100Z,74.56
2023-03-16T05:15:17.912Z,74.05
2023-03-16T05:15:49.694Z,74.34
2023-03-16T05:16:21.521Z,74.58
2023-03-16T05:16:53.275Z,74.36
2023-03-16T05:17:25.134Z,74.05
2023-03-16T05:17:57.172Z,74.17
2023-03-16T05:18:29.506Z,73.64
2023-03-16T05:19:02.019Z,74.08
2023-03-16T05:19:34.106Z,74.20
2023-03-16T05:20:09.284Z,74.14
2023-03-16T05:20:42.308Z,74.13
2023-03-16T05:21:14.056Z,73.54
2023-03-16T05:21:46.047Z,73.95
2023-03-16T05:22:18.078Z,73.14
2023-03-16T05:22:50.672Z,74.14
2023-03-16T05:23:22.853Z,73.83
2023-03-16T05:23:54.618Z,73.73
2023-03-16T05:24:26.537Z,73.19
2023-03-16T05:25:00.733Z,73.84
2023-03-16T05:25:32.558Z,72.68
2023-03-16T05:26:04.436Z,72.66
2023-03-16T05:26:36.125Z,73.54
2023-03-16T05:27:08.353Z,72.65
2023-03-16T05:27:41.752Z,72.98
2023-03-16T05:28:13.566Z,73.05
2023-03-16T05:28:45.906Z,73.11
2023-03-16T05:29:17.743Z,72.57
2023-03-16T05:29:49.483Z,73.14
2023-03-16T05:30:21.510Z,73.26
2023-03-16T05:30:53.399Z,72.75
2023-03-16T05:31:26.817Z,72.72
2023-03-16T05:31:59.677Z,73.35
2023-03-16T05:32:31.533Z,72.62
2023-03-16T05:33:03.425Z,73.23
2023-03-16T05:33:35.688Z,72.82
2023-03-16T05:34:07.429Z,72.47
2023-03-16T05:34:39.216Z,72.01
2023-03-16T05:35:13.704Z,72.88
2023-03-16T05:35:45.620Z,72.88
2023-03-16T05:36:18.548Z,72.46
2023-03-16T05:36:50.289Z,72.97
2023-03-16T05:37:22.060Z,71.92
2023-03-16T05:37:53.875Z,71.81
2023-03-16T05:38:27.584Z,71.68
2023-03-16T05:38:59.437Z,72.27
2023-03-16T05:39:31.212Z,72.11
2023-03-16T05:40:12.019Z,71.67
2023-03-16T05:40:44.272Z,71.03
2023-03-16T05:41:18.298Z,71.23
2023-03-16T05:41:50.271Z,71.71
2023-03-16T05:42:22.172Z,71.48
2023-03-16T05:42:57.099Z,71.23
2023-03-16T05:43:31.710Z,70.94
2023-03-16T05:44:04.749Z,71.87
2023-03-16T05:44:36.903Z,70.87
2023-03-16T05:45:09.259Z,71.23
2023-03-16T05:45:40.979Z,71.73
2023-03-16T05:46:13.775Z,71.06
2023-03-16T05:46:45.941Z,70.61
2023-03-16T05:47:17.845Z,71.14
2023-03-16T05:47:49.886Z,70.37
2023-03-16T05:48:21.984Z,71.38
2023-03-16T05:48:53.824Z,70.39
2023-03-16T05:49:26.326Z,70.17
2023-03-16T05:49:58.117Z,70.48
2023-03-16T05:50:30.752Z,70.60
2023-03-16T05:51:06.032Z,70.76
2023-03-16T05:51:37.792Z,70.37
2023-03-16T05:52:09.531Z,70.47
2023-03-16T05:52:41.561Z,69.65
2023-03-16T05:53:14.010Z,69.93
2023-03-16T05:53:46.937Z,70.73
2023-03-16T05:54:18.805Z,69.64
2023-03-16T05:54:50.540Z,69.44
2023-03-16T05:55:22.498Z,70.70
2023-03-16T05:55:54.772Z,69.68
2023-03-16T05:56:28.989Z,70.46
2023-03-16T05:57:00.826Z,69.33
2023-03-16T05:57:33.981Z,69.52
2023-03-16T05:58:06.029Z,68.94
2023-03-16T05:58:37.850Z,68.81
2023-03-16T05:59:09.621Z,69.12
2023-03-16T05:59:41.392Z,69.43
2023-03-16T06:00:15.980Z,68.99
2023-03-16T06:00:47.950Z,69.47
2023-03-16T06:01:23.324Z,69.28
2023-03-16T06:01:55.075Z,68.77
2023-03-16T06:02:27.085Z,68.91
2023-03-16T06:02:59.327Z,68.41
2023-03-16T06:03:31.599Z,68.76
2023-03-16T06:04:13.363Z,67.90
2023-03-16T06:04:53.279Z,67.76
2023-03-16T06:05:28.924Z,68.12
2023-03-16T06:06:06.522Z,68.16
2023-03-16T06:06:47.283Z,67.22
2023-03-16T06:07:21.997Z,67.84
2023-03-16T06:08:14.776Z,67.97
2023-03-16T06:09:06.514Z,67.04
2023-03-16T06:09:45.426Z,67.43
2023-03-16T06:10:27.935Z,66.77
2023-03-16T06:11:09.462Z,66.78
2023-03-16T06:11:44.627Z,67.21
2023-03-16T06:12:16.826Z,67.72
2023-03-16T06:12:55.599Z,67.13
2023-03-16T06:13:27.901Z,67.11
2023-03-16T06:14:12.949Z,67.21
2023-03-16T06:14:47.742Z,66.92
2023-03-16T06:15:29.667Z,66.38
2023-03-16T06:16:10.834Z,66.31
2023-03-16T06:16:43.483Z,67.08
2023-03-16T06:17:18.036Z,66.58
2023-03-16T06:17:50.183Z,66.05
2023-03-16T06:18:39.781Z,65.76
2023-03-16T06:19:29.371Z,65.78
2023-03-16T06:20:06.535Z,65.63
2023-03-16T06:20:40.727Z,65.73
2023-03-16T06:21:19.449Z,65.14
2023-03-16T06:22:11.565Z,64.78
2023-03-16T06:22:44.661Z,65.38
2023-03-16T06:23:19.082Z,65.60
2023-03-16T06:23:58.732Z,64.97
2023-03-16T06:24:41.936Z,64.87
2023-03-16T06:25:26.684Z,64.59
2023-03-16T06:26:06.073Z,64.44
2023-03-16T06:26:40.825Z,64.62
2023-03-16T06:27:18.708Z,64.72
2023-03-16T06:28:01.015Z,64.14
2023-03-16T06:28:58.230Z,64.18
2023-03-16T06:29:37.982Z,64.33
2023-03-16T06:30:21.871Z,64.60
2023-03-16T06:31:21.194Z,63.97
2023-03-16T06:31:58.070Z,63.46
2023-03-16T06:32:36.480Z,63.64
2023-03-16T06:33:10.001Z,63.51
2023-03-16T06:33:42.368Z,63.53
2023-03-16T06:34:24.203Z,63.50
2023-03-16T06:34:59.761Z,63.37
2023-03-16T06:35:38.778Z,62.91
2023-03-16T06:36:16.469Z,62.78
2023-03-16T06:36:49.681Z,62.85
2023-03-16T06:37:22.540Z,62.89
2023-03-16T06:37:54.760Z,62.58
2023-03-16T06:38:32.629Z,62.85
2023-03-16T06:39:10.544Z,62.90
2023-03-16T06:39:42.947Z,62.56
2023-03-16T06:40:18.918Z,62.30
2023-03-16T06:41:02.347Z,62.14
2023-03-16T06:41:36.371Z,62.11
2023-03-16T06:42:08.576Z,61.62
2023-03-16T06:42:41.347Z,61.88
2023-03-16T06:43:16.410Z,61.06
2023-03-16T06:43:53.353Z,60.98
2023-03-16T06:44:28.490Z,60.93
2023-03-16T06:45:03.935Z,60.89
2023-03-16T06:45:36.624Z,61.39
2023-03-16T06:46:11.732Z,61.20
2023-03-16T06:46:44.372Z,60.92
2023-03-16T06:47:16.740Z,61.21
2023-03-16T06:48:47.706Z,60.78
2023-03-16T06:49:22.508Z,60.87
2023-03-16T06:49:56.880Z,60.71
2023-03-16T06:50:30.905Z,60.88
2023-03-16T06:52:15.622Z,60.32
2023-03-16T06:52:53.022Z,60.58
2023-03-16T06:53:25.378Z,60.01
2023-03-16T06:54:08.901Z,60.41
2023-03-16T06:54:48.357Z,59.49
2023-03-16T06:55:21.228Z,59.71
2023-03-16T06:56:01.528Z,59.43
2023-03-16T06:56:41.513Z,59.55
2023-03-16T06:57:16.847Z,59.27
2023-03-16T06:57:49.051Z,59.30
2023-03-16T06:58:22.165Z,59.17
2023-03-16T06:58:54.684Z,59.30
2023-03-16T06:59:29.238Z,59.30
2023-03-16T07:00:04.989Z,59.28
2023-03-16T07:00:48.739Z,58.72
2023-03-16T07:01:30.109Z,58.80
2023-03-16T07:02:02.035Z,59.48
2023-03-16T07:02:35.818Z,58.85
2023-03-16T07:03:19.113Z,59.38
2023-03-16T07:04:51.714Z,58.00
2023-03-16T07:05:25.685Z,57.56
2023-03-16T07:05:58.132Z,58.23
2023-03-16T07:06:35.610Z,58.54
2023-03-16T07:07:12.065Z,58.04
2023-03-16T07:07:46.642Z,57.86
2023-03-16T07:08:26.911Z,57.91
2023-03-16T07:09:06.562Z,56.99
2023-03-16T07:09:41.455Z,56.94
2023-03-16T07:10:21.984Z,57.99
2023-03-16T07:11:03.024Z,57.19
2023-03-16T07:11:41.476Z,57.20
2023-03-16T07:12:16.995Z,56.53
2023-03-16T07:12:54.001Z,56.35
2023-03-16T07:13:32.140Z,56.01
2023-03-16T07:14:13.122Z,56.00
2023-03-16T07:14:51.266Z,56.75
2023-03-16T07:15:26.719Z,56.71
2023-03-16T07:15:59.401Z,56.37
2023-03-16T07:16:32.350Z,56.25
2023-03-16T07:17:09.414Z,55.98
2023-03-16T07:17:50.893Z,55.84
2023-03-16T07:18:26.243Z,56.37
2023-03-16T07:18:58.410Z,55.92
2023-03-16T07:19:30.176Z,56.42
2023-03-16T07:20:05.457Z,56.58
2023-03-16T07:20:37.192Z,55.87
2023-03-16T07:21:08.964Z,56.36
2023-03-16T07:21:41.938Z,56.29